Time;durP1;ratioP1;P1;durP2;ratioP2;P2;SDS_P1;SDS_P2;PMS_P1;PMS_P2;Temp;Humidity;BMP_temperature;BMP_pressure;BME280_temperature;BME280_humidity;BME280_pressure;Samples;Min_cycle;Max_cycle;Signal;HPM_P1;HPM_P2
2023/03/19 00:09:48;;;;;;;52.50;26.70;;;;;;;3.44;57.62;100308.38;124602;1300;114554;-65
2023/03/19 00:22:22;;;;;;;40.10;22.00;;;;;;;3.33;57.69;100310.16;125507;1289;115087;-65
2023/03/19 00:48:42;;;;;;;;;;;;;;;;;;;;;
2023/03/19 00:53:12;;;;;;;54.50;30.40;;;;;;;2.93;58.65;100313.39;125821;1286;113639;-65
2023/03/19 01:01:27;;;;;;;;;;;;;;;;;;;;;
2023/03/19 01:47:54;;;;;;;49.60;26.90;;;;;;;2.45;60.30;100282.48;124679;1295;114752;-64
2023/03/19 01:51:51;;;;;;;50.10;26.80;;;;;;;2.50;60.23;100284.51;124961;1295;114831;-65
2023/03/19 01:55:47;;;;;;;;;;;;;;;;;;;;;
2023/03/19 02:08:22;;;;;;;;;;;;;;;;;;;;;
2023/03/19 03:30:11;;;;;;;34.00;21.10;;;;;;;2.94;60.67;100305.08;124369;1301;128624;-65
2023/03/19 03:52:32;;;;;;;48.90;25.80;;;;;;;2.65;60.79;100320.92;125084;1295;128782;-67
2023/03/19 04:00:24;;;;;;;;;;;;;;;;;;;;;
2023/03/19 04:12:56;;;;;;;46.20;27.30;;;;;;;2.30;61.29;100310.56;124677;1298;129714;-65
2023/03/19 04:21:24;;;;;;;53.40;28.40;;;;;;;2.25;61.52;100314.13;123896;1303;114838;-66
2023/03/19 04:34:11;;;;;;;48.30;27.60;;;;;;;2.20;61.82;100306.48;124816;1292;128472;-65
2023/03/19 04:37:58;;;;;;;;;;;;;;;;;;;;;
2023/03/19 04:46:05;;;;;;;45.20;24.40;;;;;;;2.19;62.04;100307.71;125466;1296;114914;-64
2023/03/19 05:51:17;;;;;;;34.50;18.70;;;;;;;3.46;61.61;100320.67;116972;1305;10332958;-65
2023/03/19 06:13:38;;;;;;;33.70;18.00;;;;;;;4.61;60.79;100330.36;122608;1312;128235;-66
2023/03/19 06:17:40;;;;;;;;;;;;;;;;;;;;;
2023/03/19 06:44:05;;;;;;;31.70;19.60;;;;;;;7.16;58.10;100335.29;122602;1316;114848;-66
2023/03/19 07:01:10;;;;;;;;;;;;;;;;;;;;;
2023/03/19 07:09:13;;;;;;;30.60;17.40;;;;;;;8.90;56.00;100338.12;121795;1329;115647;-66
2023/03/19 07:17:26;;;;;;;39.50;22.90;;;;;;;9.31;55.25;100333.70;122753;1317;128570;-65
2023/03/19 07:39:45;;;;;;;28.00;17.30;;;;;;;10.85;53.44;100332.98;122094;1324;128336;-66
2023/03/19 07:43:22;;;;;;;;;;;;;;;;;;;;;
2023/03/19 07:51:55;;;;;;;23.80;14.40;;;;;;;12.29;51.81;100351.73;122043;1323;113801;-66
2023/03/19 08:04:53;;;;;;;25.80;15.90;;;;;;;13.39;49.80;100345.22;122188;1326;115668;-67
2023/03/19 08:08:25;;;;;;;21.30;14.50;;;;;;;13.67;50.00;100346.73;126081;1291;114808;-66
2023/03/19 08:16:13;;;;;;;23.50;13.90;;;;;;;14.13;49.13;100337.41;127054;1281;115425;-66
2023/03/19 08:24:01;;;;;;;22.30;14.90;;;;;;;14.27;47.98;100335.27;127513;1266;114949;-65
2023/03/19 08:32:10;;;;;;;19.90;13.90;;;;;;;14.38;48.02;100319.30;127347;1269;114300;-66
2023/03/19 08:45:15;;;;;;;20.70;13.60;;;;;;;14.64;47.11;100331.48;126462;1281;114819;-66
2023/03/19 08:53:40;;;;;;;21.30;14.20;;;;;;;14.83;46.97;100324.66;125091;1292;115637;-66
2023/03/19 08:57:09;;;;;;;24.00;13.50;;;;;;;15.07;46.67;100324.70;124771;1299;114805;-66
2023/03/19 09:01:02;;;;;;;21.10;13.90;;;;;;;15.27;46.44;100329.96;124881;1298;129677;-65
2023/03/19 09:04:59;;;;;;;23.30;14.30;;;;;;;15.45;46.07;100327.84;125252;1292;114640;-65
2023/03/19 09:08:28;;;;;;;20.10;13.30;;;;;;;15.63;45.55;100319.37;124786;1293;114483;-65
2023/03/19 09:12:14;;;;;;;;;;;;;;;;;;;;;
2023/03/19 09:25:00;;;;;;;20.40;13.60;;;;;;;16.14;44.22;100313.63;125825;1288;114629;-66
2023/03/19 09:28:27;;;;;;;19.20;13.00;;;;;;;16.32;43.61;100302.96;126215;1285;114834;-65
2023/03/19 09:31:46;;;;;;;;;;;;;;;;;;;;;
2023/03/19 09:35:43;;;;;;;19.50;13.70;;;;;;;16.44;42.97;100296.89;126779;1276;115002;-69
2023/03/19 09:39:30;;;;;;;18.30;12.60;;;;;;;16.44;42.36;100297.78;126782;1274;128816;-67
2023/03/19 09:52:23;;;;;;;15.80;11.60;;;;;;;16.76;41.74;100308.41;126214;1285;114852;-62
2023/03/19 09:55:59;;;;;;;15.70;11.10;;;;;;;16.86;42.08;100294.98;125654;1289;114747;-64
2023/03/19 09:59:52;;;;;;;14.60;11.30;;;;;;;17.02;40.81;100285.31;125683;1292;128375;-64
2023/03/19 10:03:34;;;;;;;14.40;9.90;;;;;;;17.16;40.98;100279.77;126443;1282;114211;-64
2023/03/19 10:06:55;;;;;;;19.00;11.10;;;;;;;17.36;40.86;100282.55;126578;1282;115162;-64
2023/03/19 10:10:48;;;;;;;15.10;11.10;;;;;;;17.59;40.93;100289.25;126572;1283;115991;-62
2023/03/19 10:19:05;;;;;;;;;;;;;;;;;;;;;
2023/03/19 10:27:09;;;;;;;13.90;9.90;;;;;;;17.61;39.13;100256.56;127146;1273;116329;-62
2023/03/19 10:35:12;;;;;;;15.90;11.00;;;;;;;17.68;39.00;100253.64;126594;1283;114744;-63
2023/03/19 10:39:06;;;;;;;;;;;;;;;;;;;;;
2023/03/19 10:42:59;;;;;;;16.00;12.50;;;;;;;17.75;39.39;100262.33;126010;1277;114708;-62
2023/03/19 10:51:06;;;;;;;;;;;;;;;17.70;39.26;100246.09;126812;1280;114618;-62
2023/03/19 10:59:41;;;;;;;13.40;10.40;;;;;;;17.78;38.91;100239.84;128109;1270;127106;-63
2023/03/19 11:25:20;;;;;;;13.70;9.40;;;;;;;18.50;38.04;100223.64;125494;1292;114088;-61
2023/03/19 11:28:53;;;;;;;12.80;9.70;;;;;;;18.39;37.22;100226.40;125406;1296;114920;-62
2023/03/19 11:32:38;;;;;;;13.40;11.00;;;;;;;18.25;37.45;100222.70;125254;1298;114776;-62
2023/03/19 11:49:11;;;;;;;12.90;9.40;;;;;;;18.23;37.55;100202.92;126194;1286;114588;-63
2023/03/19 11:53:23;;;;;;;13.60;9.70;;;;;;;18.34;37.30;100200.80;126767;1273;114399;-62
2023/03/19 12:01:34;;;;;;;;;;;;;;;18.49;37.62;100195.19;126722;1274;128391;-63
2023/03/19 12:05:20;;;;;;;15.40;10.60;;;;;;;18.51;37.42;100193.15;127111;1274;114261;-64
2023/03/19 12:09:13;;;;;;;16.10;10.80;;;;;;;18.45;37.46;100189.41;126956;1276;115982;-64
2023/03/19 12:17:49;;;;;;;;;;;;;;;;;;;;;
2023/03/19 12:26:11;;;;;;;14.40;10.10;;;;;;;18.04;37.39;100187.29;126823;1272;117931;-62
2023/03/19 12:34:08;;;;;;;14.90;9.80;;;;;;;17.73;37.47;100188.39;128388;1273;114811;-64
2023/03/19 12:37:44;;;;;;;13.60;9.90;;;;;;;17.79;37.57;100184.45;127532;1266;114806;-63
2023/03/19 12:45:32;;;;;;;14.70;10.00;;;;;;;18.04;37.53;100182.45;127445;1268;114869;-63
2023/03/19 12:49:29;;;;;;;16.50;10.90;;;;;;;18.14;37.22;100180.35;127332;1271;114956;-62
2023/03/19 13:01:21;;;;;;;;;;;;;;;;;;;;;
2023/03/19 13:04:45;;;;;;;14.30;9.80;;;;;;;18.34;37.37;100168.57;128263;1262;115652;-64
2023/03/19 13:07:56;;;;;;;20.60;12.20;;;;;;;18.37;37.45;100162.52;127666;1267;114722;-63
2023/03/19 13:11:20;;;;;;;17.90;10.70;;;;;;;18.43;37.26;100159.51;128022;1266;114781;-64
2023/03/19 13:14:48;;;;;;;12.00;9.70;;;;;;;18.51;37.19;100163.88;128126;1267;115085;-62
2023/03/19 13:18:46;;;;;;;14.90;10.10;;;;;;;18.57;36.93;100159.77;127892;1277;127754;-64
2023/03/19 13:26:52;;;;;;;15.60;10.30;;;;;;;18.48;36.85;100163.45;128395;1257;114467;-61
2023/03/19 13:30:46;;;;;;;17.00;11.40;;;;;;;18.48;36.65;100159.79;128376;1257;114691;-62
2023/03/19 13:34:30;;;;;;;16.40;10.10;;;;;;;18.55;37.12;100157.21;127974;1264;114294;-63
2023/03/19 13:38:18;;;;;;;14.70;10.10;;;;;;;18.65;36.87;100164.73;128229;1259;128304;-73
2023/03/19 13:42:24;;;;;;;;;;;;;;;;;;;;;
2023/03/19 13:59:03;;;;;;;14.00;9.60;;;;;;;18.58;36.55;100145.25;127610;1268;128617;-70
2023/03/19 14:02:26;;;;;;;15.80;9.60;;;;;;;18.60;36.60;100146.67;127336;1277;114909;-66
2023/03/19 14:06:10;;;;;;;14.50;9.10;;;;;;;18.62;36.41;100150.16;127561;1270;114846;-66
2023/03/19 14:10:13;;;;;;;14.10;9.40;;;;;;;18.67;36.61;100151.47;127281;1273;113794;-69
2023/03/19 14:14:13;;;;;;;13.60;10.30;;;;;;;18.71;36.37;100143.44;128220;1260;114800;-63
2023/03/19 14:18:12;;;;;;;17.50;10.30;;;;;;;18.70;36.69;100138.98;127676;1270;127599;-69
2023/03/19 14:22:10;;;;;;;;;;;;;;;;;;;;;
2023/03/19 14:25:51;;;;;;;14.40;9.20;;;;;;;18.69;36.58;100138.33;127308;1273;114724;-67
2023/03/19 14:29:25;;;;;;;13.60;9.90;;;;;;;18.69;36.73;100138.53;127315;1270;114167;-66
2023/03/19 14:33:08;;;;;;;;;;;;;;;;;;;;;
2023/03/19 14:36:42;;;;;;;16.30;10.20;;;;;;;18.73;36.99;100142.69;127497;1267;127796;-65
2023/03/19 14:40:22;;;;;;;;;;;;;;;;;;;;;
2023/03/19 14:48:26;;;;;;;13.30;9.50;;;;;;;18.73;36.55;100139.41;126304;1280;114745;-61
2023/03/19 14:52:08;;;;;;;14.40;10.40;;;;;;;18.70;36.34;100133.73;126383;1299;114833;-64
2023/03/19 15:04:14;;;;;;;;;;;;;;;;;;;;;
2023/03/19 15:12:40;;;;;;;;;;;;;;;;;;;;;
2023/03/19 15:16:55;;;;;;;20.60;11.10;;;;;;;18.33;36.54;100133.09;127147;1287;128761;-65
2023/03/19 15:25:25;;;;;;;18.90;12.00;;;;;;;18.20;36.37;100135.05;127419;1270;114527;-66
2023/03/19 15:28:58;;;;;;;17.80;11.70;;;;;;;18.13;36.32;100132.20;127100;1277;113953;-67
2023/03/19 15:32:13;;;;;;;18.90;12.50;;;;;;;18.11;36.29;100133.27;126998;1274;114374;-68
2023/03/19 15:39:56;;;;;;;15.80;11.00;;;;;;;17.90;36.04;100137.15;128125;1273;114914;-71
2023/03/19 15:43:47;;;;;;;16.40;11.40;;;;;;;17.79;35.98;100139.69;127095;1274;113797;-66
2023/03/19 15:52:10;;;;;;;17.20;10.90;;;;;;;17.55;36.36;100142.87;127356;1270;114870;-65
2023/03/19 15:55:37;;;;;;;16.40;11.80;;;;;;;17.42;36.33;100143.35;127537;1273;128754;-67
2023/03/19 15:59:11;;;;;;;;;;;;;;;;;;;;;
2023/03/19 16:03:03;;;;;;;21.70;12.60;;;;;;;17.21;36.83;100151.21;128626;1267;113917;-68
2023/03/19 16:07:11;;;;;;;17.50;12.20;;;;;;;17.09;37.02;100154.33;129447;1254;113483;-64
2023/03/19 16:11:12;;;;;;;;;;;;;;;;;;;;;
2023/03/19 16:15:15;;;;;;;24.20;17.30;;;;;;;16.74;37.50;100158.64;130030;1265;130059;-63
2023/03/19 16:18:38;;;;;;;;;;;;;;;;;;;;;
2023/03/19 16:22:07;;;;;;;25.50;17.70;;;;;;;16.40;38.15;100163.05;127091;1275;115470;-68
2023/03/19 16:25:45;;;;;;;28.50;19.10;;;;;;;16.23;38.31;100167.55;127233;1273;115213;-65
2023/03/19 16:29:59;;;;;;;23.00;14.20;;;;;;;16.07;38.41;100168.59;126997;1272;115551;-65
2023/03/19 16:38:13;;;;;;;19.70;13.80;;;;;;;15.75;38.75;100172.35;127644;1276;113976;-67
2023/03/19 16:41:55;;;;;;;22.40;15.80;;;;;;;15.56;38.79;100173.17;126399;1288;114596;-65
2023/03/19 16:45:16;;;;;;;23.00;15.40;;;;;;;15.42;39.07;100178.31;125231;1297;114765;-70
2023/03/19 16:48:26;;;;;;;26.10;17.30;;;;;;;15.33;39.42;100185.61;125293;1290;115568;-67
2023/03/19 16:52:03;;;;;;;28.00;17.80;;;;;;;15.24;39.73;100183.74;125580;1279;130082;-66
2023/03/19 16:55:55;;;;;;;33.70;20.80;;;;;;;15.10;40.01;100186.48;126541;1279;116337;-69
2023/03/19 16:59:32;;;;;;;44.90;32.70;;;;;;;14.94;40.22;100187.80;126084;1283;114959;-72
2023/03/19 17:02:48;;;;;;;35.10;24.00;;;;;;;14.80;40.37;100183.35;125522;1290;115822;-70
2023/03/19 17:05:53;;;;;;;32.40;20.20;;;;;;;14.69;40.73;100185.73;126939;1289;114450;-68
2023/03/19 17:09:58;;;;;;;30.30;19.60;;;;;;;14.57;40.98;100186.31;125693;1281;128792;-73
2023/03/19 17:13:44;;;;;;;31.20;22.40;;;;;;;14.44;41.23;100190.59;125615;1285;114038;-68
2023/03/19 17:21:58;;;;;;;37.90;22.60;;;;;;;14.10;42.01;100198.81;126244;1282;114524;-70
2023/03/19 17:25:12;;;;;;;40.40;26.20;;;;;;;13.92;42.36;100202.11;126437;1283;115078;-68
2023/03/19 17:28:32;;;;;;;36.40;24.40;;;;;;;13.78;42.75;100203.21;126360;1283;129668;-69
2023/03/19 17:32:20;;;;;;;34.80;22.20;;;;;;;13.62;42.85;100210.15;127368;1279;114680;-68
2023/03/19 17:40:20;;;;;;;;;;;;;;;;;;;;;
2023/03/19 17:43:30;;;;;;;28.90;20.40;;;;;;;12.98;43.90;100215.84;126551;1277;114718;-68
2023/03/19 17:46:57;;;;;;;28.40;19.90;;;;;;;12.80;44.22;100217.52;127040;1276;127785;-66
2023/03/19 17:50:34;;;;;;;32.30;20.40;;;;;;;12.60;44.59;100221.73;127045;1280;114730;-67
2023/03/19 17:54:03;;;;;;;31.50;18.70;;;;;;;12.40;44.77;100223.63;127504;1268;113893;-68
2023/03/19 17:57:56;;;;;;;30.70;18.30;;;;;;;12.19;45.03;100226.98;127263;1274;114797;-67
2023/03/19 18:05:57;;;;;;;;;;;;;;;;;;;;;
2023/03/19 18:13:57;;;;;;;53.20;25.40;;;;;;;11.35;46.35;100225.70;128475;1275;114725;-68
2023/03/19 18:17:54;;;;;;;39.10;22.60;;;;;;;11.15;46.80;100229.05;126812;1277;114514;-68
2023/03/19 18:26:17;;;;;;;;;;;;;;;;;;;;;
2023/03/19 18:29:51;;;;;;;32.80;21.20;;;;;;;10.60;47.79;100227.61;125484;1287;114685;-70
2023/03/19 18:37:49;;;;;;;;;;;;;;;;;;;;;
2023/03/19 18:49:56;;;;;;;42.20;25.50;;;;;;;9.90;49.51;100233.14;127586;1292;114935;-70
2023/03/19 18:53:17;;;;;;;;;;;;;;;;;;;;;
2023/03/19 18:57:27;;;;;;;45.50;29.00;;;;;;;9.70;50.12;100237.11;126054;1285;114339;-69
2023/03/19 19:00:30;;;;;;;58.00;31.60;;;;;;;9.59;50.43;100240.49;125616;1287;114930;-69
2023/03/19 19:03:38;;;;;;;45.60;27.60;;;;;;;9.49;50.06;100243.61;125482;1291;114939;-65
2023/03/19 19:06:44;;;;;;;49.40;30.00;;;;;;;9.40;50.54;100248.11;125938;1288;115547;-66
2023/03/19 19:10:31;;;;;;;;;;;;;;;;;;;;;
2023/03/19 19:13:59;;;;;;;45.40;26.80;;;;;;;9.20;51.23;100247.92;127055;1273;114194;-65
2023/03/19 19:17:28;;;;;;;45.80;27.20;;;;;;;9.11;51.75;100251.02;126527;1283;114746;-66
2023/03/19 19:21:19;;;;;;;48.80;28.20;;;;;;;9.03;52.15;100254.58;127116;1271;114753;-67
2023/03/19 19:24:36;;;;;;;76.60;38.00;;;;;;;8.94;52.92;100256.90;127208;1271;114728;-67
2023/03/19 19:27:50;;;;;;;90.60;47.30;;;;;;;8.88;52.99;100256.13;127189;1270;128722;-65
2023/03/19 19:31:27;;;;;;;88.50;47.00;;;;;;;8.82;53.21;100253.53;127162;1270;114215;-66
2023/03/19 19:34:46;;;;;;;83.60;44.70;;;;;;;8.77;53.55;100254.47;127419;1270;115591;-67
2023/03/19 19:38:05;;;;;;;93.20;53.50;;;;;;;8.72;53.92;100260.49;128323;1263;114496;-67
2023/03/19 19:41:42;;;;;;;109.00;71.90;;;;;;;8.68;54.15;100259.45;128815;1254;114718;-67
2023/03/19 19:45:12;;;;;;;81.10;47.60;;;;;;;8.61;54.35;100260.09;129160;1258;128115;-66
2023/03/19 19:53:14;;;;;;;82.90;50.70;;;;;;;8.47;54.17;100257.83;129131;1258;114654;-67
2023/03/19 19:56:24;;;;;;;82.80;49.70;;;;;;;8.39;54.67;100258.81;129725;1258;114458;-66
2023/03/19 19:59:44;;;;;;;;;;;;;;;;;;;;;
2023/03/19 20:03:15;;;;;;;81.20;47.90;;;;;;;8.27;54.54;100261.65;129068;1255;129578;-68
2023/03/19 20:06:32;;;;;;;76.90;48.20;;;;;;;8.20;55.05;100266.20;131689;1254;114241;-71
2023/03/19 20:10:01;;;;;;;83.60;51.10;;;;;;;8.13;55.19;100268.95;131739;1254;114746;-69
2023/03/19 20:13:58;;;;;;;91.00;52.50;;;;;;;8.05;55.45;100271.06;129504;1254;114300;-69
2023/03/19 20:26:48;;;;;;;64.60;36.20;;;;;;;7.80;56.19;100273.98;127906;1270;114739;-68
2023/03/19 20:39:21;;;;;;;90.90;50.00;;;;;;;7.62;56.54;100274.67;129439;1271;114056;-67
2023/03/19 20:42:34;;;;;;;84.90;51.80;;;;;;;7.57;56.82;100272.33;128398;1277;127764;-67
2023/03/19 20:46:12;;;;;;;;;;;;;;;;;;;;;
2023/03/19 20:49:51;;;;;;;;;;;;;;;;;;;;;
2023/03/19 20:58:32;;;;;;;93.00;52.20;;;;;;;7.42;57.08;100266.86;128059;1265;113810;-68
2023/03/19 21:01:49;;;;;;;85.80;51.70;;;;;;;7.38;57.58;100270.56;131922;1269;127718;-70
2023/03/19 21:05:10;;;;;;;;;;;;;;;;;;;;;
2023/03/19 21:08:57;;;;;;;93.50;53.50;;;;;;;7.32;57.60;100274.70;131497;1260;114932;-69
2023/03/19 21:12:58;;;;;;;94.00;50.50;;;;;;;7.28;57.75;100276.45;131131;1261;113662;-70
2023/03/19 21:21:02;;;;;;;;;;;;;;;7.23;58.28;100284.59;128188;1270;127709;-67
2023/03/19 21:24:36;;;;;;;82.40;47.30;;;;;;;7.20;58.32;100290.41;130051;1270;114740;-67
2023/03/19 21:35:28;;;;;;;90.30;52.60;;;;;;;7.13;58.61;100293.83;130767;1265;114483;-70
2023/03/19 21:38:35;;;;;;;87.80;51.90;;;;;;;7.11;58.90;100289.30;130502;1265;127990;-67
2023/03/19 21:41:45;;;;;;;85.50;51.00;;;;;;;7.11;59.26;100287.52;130700;1265;115292;-66
2023/03/19 21:44:59;;;;;;;97.40;51.90;;;;;;;7.12;59.39;100288.19;130693;1266;114005;-68
2023/03/19 21:48:14;;;;;;;93.40;50.60;;;;;;;7.11;59.43;100283.61;130721;1266;114530;-67
2023/03/19 21:51:24;;;;;;;87.40;50.30;;;;;;;7.12;59.55;100286.95;127915;1262;114720;-68
2023/03/19 21:54:27;;;;;;;97.10;51.60;;;;;;;7.11;59.49;100285.73;131680;1256;128901;-67
2023/03/19 21:57:42;;;;;;;85.80;50.20;;;;;;;7.11;59.62;100286.27;131561;1256;114760;-68
2023/03/19 22:00:48;;;;;;;95.30;51.70;;;;;;;7.12;59.74;100283.58;131587;1254;114708;-70
2023/03/19 22:04:00;;;;;;;88.80;51.50;;;;;;;7.13;60.15;100281.41;131516;1256;114164;-69
2023/03/19 22:07:03;;;;;;;87.70;49.90;;;;;;;7.14;60.23;100281.37;131698;1256;114695;-68
2023/03/19 22:10:18;;;;;;;91.40;50.00;;;;;;;7.16;60.07;100282.19;128860;1256;114875;-69
2023/03/19 22:13:26;;;;;;;95.30;51.10;;;;;;;7.18;60.37;100281.77;131541;1256;114668;-69
2023/03/19 22:16:31;;;;;;;91.10;50.00;;;;;;;7.19;60.34;100282.96;131619;1258;114604;-68
2023/03/19 22:19:37;;;;;;;87.70;50.60;;;;;;;7.21;60.41;100282.02;131736;1256;114435;-68
2023/03/19 22:22:46;;;;;;;90.50;50.90;;;;;;;7.22;60.28;100279.83;131591;1254;114112;-68
2023/03/19 22:26:00;;;;;;;95.30;52.40;;;;;;;7.24;60.54;100282.98;131682;1253;127741;-69
2023/03/19 22:29:17;;;;;;;92.90;53.20;;;;;;;7.25;60.53;100286.14;132368;1256;114186;-69
2023/03/19 22:32:33;;;;;;;87.20;52.70;;;;;;;7.27;60.69;100285.36;131702;1256;114493;-69
2023/03/19 22:35:37;;;;;;;95.90;52.50;;;;;;;7.29;60.71;100279.61;131788;1258;113896;-69
2023/03/19 22:38:52;;;;;;;99.00;54.60;;;;;;;7.30;60.74;100283.65;132203;1254;113922;-71
2023/03/19 22:41:58;;;;;;;101.40;56.50;;;;;;;7.31;60.95;100285.04;131754;1256;128779;-67
2023/03/19 22:45:07;;;;;;;99.50;54.30;;;;;;;7.31;61.06;100282.73;131515;1254;114556;-68
2023/03/19 22:48:20;;;;;;;97.50;54.80;;;;;;;7.31;60.91;100282.37;131813;1256;114688;-70
2023/03/19 22:51:37;;;;;;;97.30;54.30;;;;;;;7.31;60.99;100279.89;131819;1254;113864;-69
2023/03/19 22:54:53;;;;;;;96.00;53.30;;;;;;;7.30;61.11;100282.58;128316;1255;113596;-68
2023/03/19 22:58:27;;;;;;;96.10;54.40;;;;;;;7.29;61.27;100290.96;128944;1258;128815;-70
2023/03/19 23:01:42;;;;;;;92.90;52.50;;;;;;;7.27;61.03;100290.52;131576;1254;114697;-69
2023/03/19 23:04:53;;;;;;;94.10;52.90;;;;;;;7.25;61.25;100288.44;131709;1258;113704;-69
2023/03/19 23:08:18;;;;;;;91.30;51.50;;;;;;;7.23;61.22;100287.98;131737;1255;114693;-71
2023/03/19 23:11:59;;;;;;;88.30;52.00;;;;;;;7.21;60.95;100291.44;131273;1256;114287;-69
2023/03/19 23:15:09;;;;;;;93.60;51.40;;;;;;;7.17;61.28;100289.44;131033;1262;128992;-69
2023/03/19 23:18:37;;;;;;;86.30;49.90;;;;;;;7.16;61.43;100289.48;131006;1262;116788;-70
2023/03/19 23:21:57;;;;;;;82.50;47.90;;;;;;;7.14;61.35;100292.02;131018;1262;114483;-70
2023/03/19 23:25:07;;;;;;;85.90;48.30;;;;;;;7.13;61.67;100293.81;130840;1262;114306;-68
2023/03/19 23:28:29;;;;;;;85.90;49.70;;;;;;;7.13;61.73;100291.51;131135;1262;113826;-71
2023/03/19 23:31:51;;;;;;;;;;;;;;;;;;;;;
2023/03/19 23:35:22;;;;;;;93.80;49.80;;;;;;;7.13;61.89;100289.59;130933;1262;115393;-71
2023/03/19 23:38:28;;;;;;;82.80;48.30;;;;;;;7.13;61.73;100288.16;130243;1269;113655;-68
2023/03/19 23:41:38;;;;;;;83.40;48.00;;;;;;;7.12;62.01;100288.53;130330;1270;114677;-67
2023/03/19 23:45:18;;;;;;;81.10;48.00;;;;;;;7.13;62.27;100288.52;127550;1271;114416;-68
2023/03/19 23:48:52;;;;;;;86.90;49.40;;;;;;;7.14;62.09;100291.30;130498;1268;127581;-67
